Trefriw, United Kingdom
Current Conditions -  °F | °C
As of 4:50 AM on Sunday 21 Dec 2014 (Local Time) from EGOV Reporting Station
Overcast Overcast  
Wind Chill:   Ceiling: 2400
Heat Index:   Visibility: 6mi
Dew Point:   Wind: 24mph
Humidity: 71%   Direction: 230°SW
Pressure: 30.24"   Gusts: NA
Location:  53.13°N, 3.81°W
Report Text: EGOV 210450Z AUTO 23021KT 9999 OVC024/// 09/04 Q1024
Loading
Personal Weather Stations






























Interactive Weather Map New forecast layout! Learn more

10-Day Weather Forecast

Advertisements
Track Severe Weather on mobile